Terminal Aerodrome Forecast
Issued by NWS

Home | Current Version | Previous Version | Text Only | Print | Product List | Glossary On
Versions: 1 2 3 4 5 6 7 8 9 10 11 12 13 14 15 16 17 18 19 20 21 22
000
FTUS43 KPAH 161339 AAA
TAFCGI
TAF AMD
KCGI 161339Z 1614/1712 18004KT P6SM BKN008
     FM161500 20005KT P6SM BKN015
     FM161700 19007KT P6SM SCT025 BKN250=

USA.gov is the U.S. government's official web portal to all federal, state and local government web resources and services.